Arapahoe, North Carolina
Current Conditions -  °F | °C
As of 1:54 PM on Thursday 30 Oct 2014 (Local Time) from KNKT Reporting Station
Broken Clouds Broken Clouds  
Wind Chill: 19°   Ceiling: 2500
Heat Index: 19°   Visibility: 10mi
Dew Point: 11°   Wind: 10mph
Humidity: 60%   Direction: 40°NE
Pressure: 29.98"   Gusts: NA
Location:  35.03°N, 76.83°W
Report Text: KNKT 301754Z 04009KT 10SM BKN025 19/11 A2998 RMK AO2 SLP147 60000 T01890111 10200 20139 58016 $
Loading
Personal Weather Stations






























Interactive Weather Map
Tropical Storm Tracking
New forecast layout! Learn more

10-Day Weather Forecast

Advertisements
Track Severe Weather on mobile